Language selection

My Weather Profile Weather Topics  | 

Queen Charlotte Strait: Past 24 Hour Conditions

 

South Hecate Strait - 46185

10:00 AM PST 08 December 2022Buoy position: 52.53N 130.09W
Disclaimer

This table is a summary of hourly weather conditions for the past 24 hours.
Please note that these observations might not always be representative of weather conditions over their associated marine area.

Date / Time
(PST)
Wind(knots) Wave height(m) Wave period(s) Pressure(kPa) Air tempC) Water tempC)
08 December 2022
10:00 SW 18 gust 22 2.2 7.8 100.4 5 8
9:00 SW 18 gust 21 2.4 8.5 100.4 5 8
8:00 SW 18 gust 22 2.9 8.3 100.3 4 8
7:00 SW 18 gust 22 3.3 8.3 100.3 5 8
6:00 WSW 20 gust 25 3.9 9.1 100.1 6 8
5:00 SW 25 gust 32 3.7 9.1 99.9 6 8
4:00 WSW 29 gust 36 3.8 9.1 99.7 6 8
3:00 WSW 27 gust 33 3.6 8.8 99.5 6 8
2:00 SSW 18 gust 22 4.3 9.1 99.4 6 8
1:00 SSE 29 gust 35 4.1 8.8 99.4 7 8
0:00 SE 28 gust 34 4.7 9.1 99.4 7 8
07 December 2022
23:00 SE 28 gust 36 4.4 9.1 99.5 6 8
22:00 SE 23 gust 28 5.0 10.2 99.6 7 8
21:00 SE 24 gust 29 5.7 9.8 99.7 7 8
20:00 SE 27 gust 36 5.9 10.2 99.7 7 8
19:00 SSE 32 gust 41 6.5 10.7 99.7 6 8
18:00 SE 35 gust 43 6.3 9.8 99.7 7 8
17:00 SE 33 gust 43 6.4 9.8 99.9 7 8
16:00 SE 37 gust 47 5.4 9.8 99.9 7 8
15:00 SE 32 gust 42 5.6 9.5 100.0 7 8
14:00 SE 34 gust 45 4.9 8.5 100.1 7 8
13:00 SE 32 gust 41 4.7 9.5 100.3 7 8
12:00 SE 31 gust 39 4.4 8.8 100.4 7 8
11:00 SE 31 gust 37 4.1 8.8 100.6 7 8
10:00 SE 32 gust 40 4.2 8.3 100.6 7 8

Zoom-in to make a selection

Map of Pacific - South Coast marine weather areas South Nomad - 46036 Sentry Shoal - 46131 South Brooks - 46132 Halibut Bank - 46146 South Moresby - 46147 South Hecate Strait - 46185 West Sea Otter - 46204 La Perouse Bank - 46206 East Dellwood - 46207 Georgia Strait - 46303 English Bay - 46304 Discovery Island Esquimalt Harbour Kelp Reefs Malahat Race Rocks Lightstation Saturna Island Sheringham Point University of Victoria Victoria Gonzales Victoria Int'l Airport Ballenas Islands Campbell River Airport Comox Airport Entrance Island Fanny Island Nanaimo Airport Port Hardy Airport Sisters Islets Estevan Point Port Alberni Sartine Island Solander Island Tofino Airport Grief Point Howe Sound - Pam Rocks Powell River Airport Sechelt Squamish Airport Cape St.James Bella Bella Airport Bella Coola Airport Cathedral Point Herbert Island Point Atkinson Sand Heads Lightstation Tsawwassen Ferry Terminal Vancouver Int'l Airport Vancouver Harbour West Vancouver
Legend:
buoy Buoy
land station Land Station

Pacific - South Coast Area

Another Region

What we are doing

Date modified: